SCCI 231200Z 26022KT 9999 BKN041 07/M02 Q1009 NOSIG